createdAt,value
2018-12-30T00:01:32.659Z,3.50
2018-12-30T00:04:05.034Z,3.50
2018-12-30T00:06:36.198Z,3.50
2018-12-30T00:09:08.515Z,3.50
2018-12-30T00:11:39.569Z,3.50
2018-12-30T00:14:10.315Z,3.50
2018-12-30T00:16:40.034Z,3.40
2018-12-30T00:19:11.396Z,3.50
2018-12-30T00:21:43.378Z,3.50
2018-12-30T00:24:14.234Z,3.40
2018-12-30T00:26:56.060Z,3.50
2018-12-30T00:29:19.079Z,3.40
2018-12-30T00:31:49.956Z,3.40
2018-12-30T00:34:23.485Z,3.40
2018-12-30T00:36:55.836Z,3.40
2018-12-30T00:39:28.275Z,3.40
2018-12-30T00:41:58.034Z,3.40
2018-12-30T00:44:28.842Z,3.40
2018-12-30T00:46:59.714Z,3.40
2018-12-30T00:49:30.714Z,3.30
2018-12-30T00:52:01.475Z,3.40
2018-12-30T00:54:32.313Z,3.40
2018-12-30T00:57:02.994Z,3.40
2018-12-30T00:59:35.355Z,3.40
2018-12-30T01:02:06.157Z,3.30
2018-12-30T01:04:37.075Z,3.30
2018-12-30T01:07:09.076Z,3.40
2018-12-30T01:09:40.362Z,3.30
2018-12-30T01:12:11.243Z,3.30
2018-12-30T01:14:41.239Z,3.30
2018-12-30T01:17:12.074Z,3.30
2018-12-30T01:19:42.968Z,3.30
2018-12-30T01:22:13.802Z,3.30
2018-12-30T01:24:44.755Z,3.30
2018-12-30T01:27:15.514Z,3.30
2018-12-30T01:29:46.395Z,3.40
2018-12-30T01:32:19.034Z,3.30
2018-12-30T01:34:50.274Z,3.30
2018-12-30T01:37:21.120Z,3.30
2018-12-30T01:39:51.939Z,3.30
2018-12-30T01:42:23.625Z,3.30
2018-12-30T01:44:59.061Z,3.30
2018-12-30T01:47:29.194Z,3.30
2018-12-30T01:50:01.611Z,3.30
2018-12-30T01:52:33.994Z,3.30
2018-12-30T01:55:04.713Z,3.40
2018-12-30T01:57:37.915Z,3.30
2018-12-30T02:00:09.154Z,3.40
2018-12-30T02:02:39.994Z,3.40
2018-12-30T02:05:11.354Z,3.40
2018-12-30T02:07:41.073Z,3.40
2018-12-30T02:10:11.874Z,3.50
2018-12-30T02:12:44.930Z,3.40
2018-12-30T02:15:17.474Z,3.40
2018-12-30T02:17:50.325Z,3.50
2018-12-30T02:20:22.996Z,3.40
2018-12-30T02:22:52.719Z,3.40
2018-12-30T02:25:23.461Z,3.40
2018-12-30T02:27:54.245Z,3.40
2018-12-30T02:30:26.770Z,3.50
2018-12-30T02:32:57.181Z,3.40
2018-12-30T02:35:26.954Z,3.40
2018-12-30T02:37:59.256Z,3.40
2018-12-30T02:40:29.988Z,3.50
2018-12-30T02:43:03.154Z,3.50
2018-12-30T02:45:33.971Z,3.40
2018-12-30T02:48:07.914Z,3.50
2018-12-30T02:50:37.601Z,3.40
2018-12-30T02:53:07.330Z,3.50
2018-12-30T02:55:40.195Z,3.50
2018-12-30T02:58:11.595Z,3.40
2018-12-30T03:00:44.553Z,3.40
2018-12-30T03:03:16.473Z,3.40
2018-12-30T03:05:48.238Z,3.40
2018-12-30T03:08:19.719Z,3.50
2018-12-30T03:10:50.554Z,3.40
2018-12-30T03:13:21.314Z,3.50
2018-12-30T03:15:50.437Z,3.50
2018-12-30T03:18:22.793Z,3.50
2018-12-30T03:20:53.554Z,3.40
2018-12-30T03:23:24.353Z,3.40
2018-12-30T03:25:54.001Z,3.50
2018-12-30T03:28:24.876Z,3.50
2018-12-30T03:30:55.757Z,3.50
2018-12-30T03:33:28.142Z,3.50
2018-12-30T03:36:00.970Z,3.50
2018-12-30T03:38:34.034Z,3.50
2018-12-30T03:41:04.917Z,3.50
2018-12-30T03:43:38.453Z,3.50
2018-12-30T03:46:09.274Z,3.50
2018-12-30T03:48:40.003Z,3.50
2018-12-30T03:51:10.765Z,3.50
2018-12-30T03:53:41.594Z,3.50
2018-12-30T03:56:13.803Z,3.50
2018-12-30T03:58:43.568Z,3.50
2018-12-30T04:01:14.317Z,3.50
2018-12-30T04:03:45.074Z,3.40
2018-12-30T04:06:15.925Z,3.40
2018-12-30T04:08:48.768Z,3.40
2018-12-30T04:11:19.514Z,3.40
2018-12-30T04:13:50.284Z,3.40
2018-12-30T04:16:22.578Z,3.40
2018-12-30T04:18:54.358Z,3.50
2018-12-30T04:21:30.651Z,3.50
2018-12-30T04:24:01.135Z,3.50
2018-12-30T04:26:33.446Z,3.40
2018-12-30T04:29:04.195Z,3.40
2018-12-30T04:31:33.876Z,3.40
2018-12-30T04:34:05.379Z,3.50
2018-12-30T04:36:36.114Z,3.50
2018-12-30T04:39:08.266Z,3.40
2018-12-30T04:41:39.036Z,3.40
2018-12-30T04:44:12.635Z,3.50
2018-12-30T04:46:43.394Z,3.50
2018-12-30T04:49:16.274Z,3.50
2018-12-30T04:51:45.954Z,3.50
2018-12-30T04:54:16.766Z,3.50
2018-12-30T04:56:47.779Z,3.50
2018-12-30T04:59:18.554Z,3.50
2018-12-30T05:01:49.275Z,3.50
2018-12-30T05:04:21.978Z,3.50
2018-12-30T05:06:53.978Z,3.50
2018-12-30T05:09:26.358Z,3.50
2018-12-30T05:11:56.834Z,3.50
2018-12-30T05:14:27.554Z,3.50
2018-12-30T05:16:59.915Z,3.50
2018-12-30T05:19:29.676Z,3.50
2018-12-30T05:22:00.482Z,3.50
2018-12-30T05:24:31.235Z,3.40
2018-12-30T05:27:02.034Z,3.50
2018-12-30T05:29:34.955Z,3.40
2018-12-30T05:32:06.237Z,3.50
2018-12-30T05:34:41.198Z,3.50
2018-12-30T05:37:08.484Z,3.50
2018-12-30T05:39:40.354Z,3.40
2018-12-30T05:42:11.162Z,3.40
2018-12-30T05:44:41.881Z,3.40
2018-12-30T05:47:11.922Z,3.40
2018-12-30T05:49:42.286Z,3.40
2018-12-30T05:52:12.079Z,3.50
2018-12-30T05:54:42.923Z,3.40
2018-12-30T05:57:13.713Z,3.40
2018-12-30T05:59:44.520Z,3.40
2018-12-30T06:02:15.283Z,3.40
2018-12-30T06:04:46.034Z,3.40
2018-12-30T06:07:16.762Z,3.40
2018-12-30T06:09:45.914Z,3.40
2018-12-30T06:12:16.764Z,3.40
2018-12-30T06:14:47.634Z,3.40
2018-12-30T06:17:17.322Z,3.30
2018-12-30T06:19:46.963Z,3.30
2018-12-30T06:22:16.763Z,3.30
2018-12-30T06:24:46.522Z,3.30
2018-12-30T06:27:17.355Z,3.20
2018-12-30T06:29:48.235Z,3.20
2018-12-30T06:32:19.715Z,3.20
2018-12-30T06:34:50.482Z,3.20
2018-12-30T06:37:22.118Z,3.20
2018-12-30T06:39:51.882Z,3.20
2018-12-30T06:42:22.693Z,3.20
2018-12-30T06:44:55.126Z,3.20
2018-12-30T06:47:27.316Z,3.30
2018-12-30T06:49:58.162Z,3.30
2018-12-30T06:52:28.915Z,3.30
2018-12-30T06:54:59.722Z,3.30
2018-12-30T06:57:32.555Z,3.30
2018-12-30T07:00:03.327Z,3.20
2018-12-30T07:02:34.834Z,3.20
2018-12-30T07:05:05.646Z,3.20
2018-12-30T07:07:36.363Z,3.20
2018-12-30T07:10:07.074Z,3.20
2018-12-30T07:12:37.845Z,3.20
2018-12-30T07:15:11.765Z,3.20
2018-12-30T07:17:42.642Z,3.20
2018-12-30T07:20:13.375Z,3.20
2018-12-30T07:22:44.675Z,3.20
2018-12-30T07:25:16.075Z,3.30
2018-12-30T07:27:48.995Z,3.20
2018-12-30T07:30:19.762Z,3.20
2018-12-30T07:32:50.563Z,3.20
2018-12-30T07:35:20.283Z,3.20
2018-12-30T07:37:51.047Z,3.20
2018-12-30T07:40:23.137Z,3.20
2018-12-30T07:42:53.996Z,3.20
2018-12-30T07:45:24.794Z,3.20
2018-12-30T07:47:55.563Z,3.20
2018-12-30T07:50:24.874Z,3.30
2018-12-30T07:52:54.633Z,3.40
2018-12-30T07:55:25.434Z,3.40
2018-12-30T07:57:56.241Z,3.40
2018-12-30T08:00:27.042Z,3.30
2018-12-30T08:02:57.801Z,3.30
2018-12-30T08:05:28.563Z,3.20
2018-12-30T08:08:00.010Z,3.20
2018-12-30T08:10:30.844Z,3.20
2018-12-30T08:13:04.168Z,3.30
2018-12-30T08:15:34.988Z,3.30
2018-12-30T08:18:05.802Z,3.30
2018-12-30T08:20:36.531Z,3.30
2018-12-30T08:23:13.499Z,3.40
2018-12-30T08:25:39.675Z,3.40
2018-12-30T08:28:10.445Z,3.40
2018-12-30T08:30:41.324Z,3.30
2018-12-30T08:33:12.114Z,3.20
2018-12-30T08:35:42.836Z,3.30
2018-12-30T08:38:11.994Z,3.30
2018-12-30T08:40:42.847Z,3.20
2018-12-30T08:43:17.286Z,3.20
2018-12-30T08:45:48.099Z,3.10
2018-12-30T08:48:18.922Z,3.10
2018-12-30T08:50:49.635Z,3.00
2018-12-30T08:53:20.448Z,3.00
2018-12-30T08:55:51.275Z,3.00
2018-12-30T08:58:22.153Z,3.10
2018-12-30T09:00:51.919Z,3.10
2018-12-30T09:03:22.696Z,3.20
2018-12-30T09:05:56.374Z,3.30
2018-12-30T09:08:26.683Z,3.20
2018-12-30T09:10:57.999Z,3.30
2018-12-30T09:13:29.398Z,3.30
2018-12-30T09:15:58.577Z,3.40
2018-12-30T09:18:29.390Z,3.40
2018-12-30T09:21:00.201Z,3.40
2018-12-30T09:23:37.355Z,3.60
2018-12-30T09:26:03.755Z,3.70
2018-12-30T09:28:34.598Z,3.80
2018-12-30T09:31:07.134Z,4.00
2018-12-30T09:33:37.956Z,4.00
2018-12-30T09:36:10.857Z,3.70
2018-12-30T09:38:41.634Z,3.90
2018-12-30T09:41:12.446Z,3.90
2018-12-30T09:43:44.143Z,4.10
2018-12-30T09:46:13.674Z,3.80
2018-12-30T09:48:45.997Z,3.80
2018-12-30T09:51:16.842Z,3.90
2018-12-30T09:53:47.554Z,3.60
2018-12-30T09:56:18.434Z,3.70
2018-12-30T09:58:49.201Z,3.70
2018-12-30T10:01:19.973Z,3.80
2018-12-30T10:03:50.879Z,3.70
2018-12-30T10:06:21.607Z,3.80
2018-12-30T10:08:52.366Z,3.80
2018-12-30T10:11:23.199Z,3.70
2018-12-30T10:13:54.003Z,3.60
2018-12-30T10:16:24.847Z,3.70
2018-12-30T10:18:55.621Z,3.80
2018-12-30T10:21:26.480Z,3.80
2018-12-30T10:23:57.326Z,3.50
2018-12-30T10:26:28.040Z,3.60
2018-12-30T10:28:58.786Z,3.60
2018-12-30T10:31:31.882Z,3.60
2018-12-30T10:34:04.500Z,3.60
2018-12-30T10:36:35.245Z,3.60
2018-12-30T10:39:06.559Z,3.50
2018-12-30T10:41:37.362Z,3.60
2018-12-30T10:44:09.673Z,3.60
2018-12-30T10:47:50.400Z,3.60
2018-12-30T10:50:21.878Z,3.70
2018-12-30T10:52:55.279Z,3.60
2018-12-30T10:55:27.646Z,3.60
2018-12-30T10:57:58.394Z,3.70
2018-12-30T11:00:31.525Z,3.70
2018-12-30T11:03:02.317Z,3.70
2018-12-30T11:05:34.686Z,3.70
2018-12-30T11:08:06.834Z,3.70
2018-12-30T11:10:37.650Z,3.70
2018-12-30T11:13:09.500Z,3.70
2018-12-30T11:15:39.927Z,3.70
2018-12-30T11:18:09.691Z,3.60
2018-12-30T11:20:44.599Z,3.70
2018-12-30T11:23:15.529Z,3.60
2018-12-30T11:25:47.883Z,3.50
2018-12-30T11:28:18.808Z,3.60
2018-12-30T11:30:51.499Z,3.50
2018-12-30T11:33:22.242Z,3.60
2018-12-30T11:35:53.118Z,3.70
2018-12-30T11:38:24.518Z,3.60
2018-12-30T11:40:55.322Z,3.70
2018-12-30T11:43:27.595Z,3.70
2018-12-30T11:45:58.402Z,3.70
2018-12-30T11:48:29.198Z,3.70
2018-12-30T11:50:59.915Z,3.60
2018-12-30T11:53:38.100Z,3.60
2018-12-30T11:56:08.403Z,3.60
2018-12-30T11:58:39.244Z,3.60
2018-12-30T12:01:09.992Z,3.70
2018-12-30T12:03:40.931Z,3.60
2018-12-30T12:06:11.717Z,3.60
2018-12-30T12:08:42.487Z,3.60
2018-12-30T12:11:13.198Z,3.70
2018-12-30T12:13:44.805Z,3.70
2018-12-30T12:16:14.525Z,3.70
2018-12-30T12:18:45.326Z,3.70
2018-12-30T12:21:18.715Z,3.70
2018-12-30T12:23:49.993Z,3.70
2018-12-30T12:26:20.842Z,3.70
2018-12-30T12:28:51.563Z,3.70
2018-12-30T12:31:22.434Z,3.70
2018-12-30T12:33:52.159Z,3.60
2018-12-30T12:36:22.978Z,3.60
2018-12-30T12:38:52.714Z,3.60
2018-12-30T12:41:22.573Z,3.70
2018-12-30T12:43:54.093Z,3.60
2018-12-30T12:46:25.776Z,3.60
2018-12-30T12:48:56.642Z,3.60
2018-12-30T12:51:28.074Z,3.60
2018-12-30T12:53:57.913Z,3.50
2018-12-30T12:56:28.766Z,3.60
2018-12-30T12:58:58.482Z,3.50
2018-12-30T13:01:29.282Z,3.40
2018-12-30T13:04:00.120Z,3.40
2018-12-30T13:06:30.922Z,3.40
2018-12-30T13:09:00.642Z,3.30
2018-12-30T13:11:31.399Z,3.30
2018-12-30T13:14:02.126Z,3.30
2018-12-30T13:16:31.810Z,3.30
2018-12-30T13:19:04.048Z,3.20
2018-12-30T13:21:34.953Z,3.10
2018-12-30T13:24:06.319Z,3.20
2018-12-30T13:26:40.194Z,3.20
2018-12-30T13:29:10.964Z,3.10
2018-12-30T13:31:41.693Z,3.00
2018-12-30T13:34:11.404Z,3.00
2018-12-30T13:36:44.361Z,3.00
2018-12-30T13:39:15.078Z,3.00
2018-12-30T13:41:44.801Z,3.00
2018-12-30T13:44:15.689Z,3.10
2018-12-30T13:46:46.211Z,2.90
2018-12-30T13:49:15.919Z,2.90
2018-12-30T13:51:46.925Z,2.80
2018-12-30T13:54:17.694Z,2.80
2018-12-30T13:56:50.698Z,2.80
2018-12-30T13:59:21.635Z,2.80
2018-12-30T14:01:53.039Z,2.80
2018-12-30T14:04:23.807Z,2.80
2018-12-30T14:06:53.558Z,2.90
2018-12-30T14:09:24.366Z,2.90
2018-12-30T14:11:54.126Z,2.90
2018-12-30T14:14:25.003Z,2.90
2018-12-30T14:16:55.879Z,2.90
2018-12-30T14:19:26.647Z,2.80
2018-12-30T14:21:57.565Z,2.80
2018-12-30T14:24:28.794Z,2.80
2018-12-30T14:27:00.054Z,2.80
2018-12-30T14:29:31.154Z,2.90
2018-12-30T14:32:01.923Z,2.90
2018-12-30T14:34:32.764Z,2.90
2018-12-30T14:37:03.526Z,2.80
2018-12-30T14:39:34.404Z,2.90
2018-12-30T14:42:11.398Z,2.80
2018-12-30T14:44:42.117Z,2.80
2018-12-30T14:47:12.883Z,2.90
2018-12-30T14:49:43.604Z,2.80
2018-12-30T14:52:14.451Z,2.70
2018-12-30T14:54:44.199Z,2.80
2018-12-30T14:57:14.914Z,2.80
2018-12-30T14:59:46.214Z,2.80
2018-12-30T15:02:16.968Z,2.80
2018-12-30T15:04:47.757Z,2.80
2018-12-30T15:07:18.514Z,2.80
2018-12-30T15:09:49.766Z,2.80
2018-12-30T15:12:21.119Z,2.80
2018-12-30T15:14:53.443Z,2.70
2018-12-30T15:17:24.238Z,2.80
2018-12-30T15:19:55.033Z,2.80
2018-12-30T15:22:25.874Z,2.70
2018-12-30T15:24:59.514Z,2.80
2018-12-30T15:27:30.281Z,2.70
2018-12-30T15:30:01.860Z,2.80
2018-12-30T15:32:34.091Z,2.80
2018-12-30T15:35:04.895Z,2.80
2018-12-30T15:37:37.606Z,2.80
2018-12-30T15:40:10.411Z,2.80
2018-12-30T15:42:45.578Z,2.80
2018-12-30T15:45:13.798Z,2.80
2018-12-30T15:47:44.554Z,2.80
2018-12-30T15:50:17.202Z,2.80
2018-12-30T15:52:57.446Z,2.70
2018-12-30T15:55:20.474Z,2.70
2018-12-30T15:57:51.366Z,2.70
2018-12-30T16:00:22.303Z,2.80
2018-12-30T16:02:53.155Z,2.70
2018-12-30T16:05:26.146Z,2.70
2018-12-30T16:07:56.355Z,2.70
2018-12-30T16:10:28.677Z,2.80
2018-12-30T16:12:59.439Z,2.80
2018-12-30T16:15:30.274Z,2.70
2018-12-30T16:18:01.049Z,2.90
2018-12-30T16:20:31.877Z,2.80
2018-12-30T16:23:03.236Z,2.90
2018-12-30T16:25:33.994Z,2.90
2018-12-30T16:28:05.476Z,2.90
2018-12-30T16:30:36.353Z,3.00
2018-12-30T16:33:06.163Z,2.90
2018-12-30T16:35:36.874Z,2.90
2018-12-30T16:38:07.616Z,2.90
2018-12-30T16:40:38.475Z,2.90
2018-12-30T16:43:14.408Z,2.90
2018-12-30T16:45:44.753Z,2.90
2018-12-30T16:48:14.438Z,2.90
2018-12-30T16:50:45.794Z,2.90
2018-12-30T16:53:16.562Z,2.90
2018-12-30T16:55:46.356Z,3.00
2018-12-30T16:58:19.195Z,3.00
2018-12-30T17:00:49.974Z,3.00
2018-12-30T17:03:20.957Z,3.00
2018-12-30T17:05:51.160Z,3.00
2018-12-30T17:08:22.517Z,3.00
2018-12-30T17:10:53.246Z,3.00
2018-12-30T17:13:24.779Z,3.00
2018-12-30T17:15:55.645Z,3.00
2018-12-30T17:18:32.480Z,3.00
2018-12-30T17:21:03.886Z,3.00
2018-12-30T17:23:33.706Z,3.00
2018-12-30T17:26:04.636Z,3.00
2018-12-30T17:28:35.366Z,3.00
2018-12-30T17:31:06.118Z,3.00
2018-12-30T17:33:36.886Z,3.00
2018-12-30T17:36:07.802Z,3.00
2018-12-30T17:38:38.597Z,3.00
2018-12-30T17:41:09.194Z,3.00
2018-12-30T17:43:40.010Z,3.10
2018-12-30T17:46:18.196Z,3.10
2018-12-30T17:48:46.514Z,3.00
2018-12-30T17:51:17.278Z,3.00
2018-12-30T17:53:53.479Z,3.00
2018-12-30T17:56:27.046Z,3.00
2018-12-30T17:58:59.991Z,3.00
2018-12-30T18:01:29.760Z,3.00
2018-12-30T18:04:01.003Z,3.10
2018-12-30T18:06:33.842Z,3.00
2018-12-30T18:09:03.675Z,3.10
2018-12-30T18:11:35.700Z,3.10
2018-12-30T18:14:05.479Z,3.00
2018-12-30T18:16:36.328Z,3.00
2018-12-30T18:19:06.121Z,3.00
2018-12-30T18:21:38.021Z,3.00
2018-12-30T18:24:08.998Z,2.90
2018-12-30T18:26:41.200Z,3.00
2018-12-30T18:29:13.599Z,3.00
2018-12-30T18:31:44.519Z,3.00
2018-12-30T18:34:14.234Z,3.00
2018-12-30T18:36:45.039Z,2.90
2018-12-30T18:39:17.521Z,3.00
2018-12-30T18:41:46.778Z,2.90
2018-12-30T18:44:17.682Z,2.90
2018-12-30T18:46:50.060Z,2.90
2018-12-30T18:49:22.930Z,3.00
2018-12-30T18:51:54.955Z,2.90
2018-12-30T18:54:25.926Z,2.90
2018-12-30T18:56:59.189Z,2.90
2018-12-30T18:59:30.202Z,2.90
2018-12-30T19:02:07.380Z,2.90
2018-12-30T19:04:35.730Z,2.90
2018-12-30T19:07:06.800Z,2.90
2018-12-30T19:09:37.798Z,2.90
2018-12-30T19:12:08.759Z,2.90
2018-12-30T19:14:41.138Z,2.90
2018-12-30T19:17:12.870Z,2.90
2018-12-30T19:19:42.879Z,2.90
2018-12-30T19:22:13.764Z,2.90
2018-12-30T19:24:44.519Z,2.90
2018-12-30T19:27:16.079Z,2.90
2018-12-30T19:29:46.854Z,2.90
2018-12-30T19:32:24.035Z,3.00
2018-12-30T19:34:54.929Z,3.00
2018-12-30T19:37:25.805Z,3.00
2018-12-30T19:39:58.147Z,3.00
2018-12-30T19:42:31.019Z,3.00
2018-12-30T19:45:01.527Z,3.00
2018-12-30T19:47:35.179Z,3.00
2018-12-30T19:50:07.400Z,3.00
2018-12-30T19:52:38.918Z,3.00
2018-12-30T19:55:09.650Z,3.00
2018-12-30T19:57:40.601Z,3.00
2018-12-30T20:00:12.643Z,3.10
2018-12-30T20:02:43.567Z,3.10
2018-12-30T20:05:14.274Z,3.10
2018-12-30T20:07:43.961Z,3.10
2018-12-30T20:10:14.795Z,3.10
2018-12-30T20:12:47.754Z,3.10
2018-12-30T20:15:20.078Z,3.10
2018-12-30T20:17:51.045Z,3.10
2018-12-30T20:20:22.660Z,3.10
2018-12-30T20:22:53.440Z,3.20
2018-12-30T20:25:25.758Z,3.10
2018-12-30T20:27:55.557Z,3.10
2018-12-30T20:30:26.361Z,3.10
2018-12-30T20:32:56.079Z,3.10
2018-12-30T20:35:26.914Z,3.10
2018-12-30T20:37:59.212Z,3.10
2018-12-30T20:40:31.594Z,3.10
2018-12-30T20:43:02.398Z,3.10
2018-12-30T20:45:36.358Z,3.10
2018-12-30T20:48:07.885Z,3.00
2018-12-30T20:50:39.141Z,3.00
2018-12-30T20:53:12.855Z,3.10
2018-12-30T20:55:46.499Z,3.10
2018-12-30T20:58:17.480Z,3.10
2018-12-30T21:00:48.799Z,3.10
2018-12-30T21:03:22.332Z,3.10
2018-12-30T21:05:53.163Z,3.00
2018-12-30T21:08:24.071Z,3.00
2018-12-30T21:10:54.880Z,3.00
2018-12-30T21:13:26.922Z,3.10
2018-12-30T21:15:57.677Z,3.00
2018-12-30T21:18:28.515Z,3.00
2018-12-30T21:20:59.357Z,3.00
2018-12-30T21:23:30.082Z,3.00
2018-12-30T21:26:00.868Z,3.00
2018-12-30T21:28:32.238Z,3.00
2018-12-30T21:31:04.565Z,3.00
2018-12-30T21:33:35.360Z,3.00
2018-12-30T21:36:06.263Z,2.90
2018-12-30T21:38:36.036Z,3.00
2018-12-30T21:41:06.914Z,3.00
2018-12-30T21:43:38.248Z,2.90
2018-12-30T21:46:11.137Z,2.90
2018-12-30T21:48:44.206Z,2.90
2018-12-30T21:51:15.046Z,2.90
2018-12-30T21:53:46.563Z,2.90
2018-12-30T21:56:18.037Z,2.90
2018-12-30T21:58:52.914Z,2.90
2018-12-30T22:01:21.449Z,3.00
2018-12-30T22:03:52.194Z,2.90
2018-12-30T22:06:22.759Z,2.90
2018-12-30T22:08:52.515Z,2.90
2018-12-30T22:11:22.236Z,2.90
2018-12-30T22:13:51.955Z,3.00
2018-12-30T22:16:21.236Z,3.00
2018-12-30T22:18:53.679Z,2.90
2018-12-30T22:21:25.083Z,2.90
2018-12-30T22:23:55.921Z,2.90
2018-12-30T22:26:29.545Z,2.90
2018-12-30T22:29:03.947Z,2.90
2018-12-30T22:31:35.636Z,2.90
2018-12-30T22:34:07.419Z,2.90
2018-12-30T22:36:38.283Z,2.90
2018-12-30T22:39:09.242Z,2.90
2018-12-30T22:41:40.514Z,2.90
2018-12-30T22:44:13.346Z,2.90
2018-12-30T22:46:44.117Z,2.90
2018-12-30T22:49:14.890Z,2.90
2018-12-30T22:51:44.638Z,2.90
2018-12-30T22:54:15.396Z,2.90
2018-12-30T22:56:47.727Z,2.90
2018-12-30T22:59:19.239Z,2.90
2018-12-30T23:01:50.042Z,2.90
2018-12-30T23:04:23.082Z,2.90
2018-12-30T23:06:54.370Z,2.90
2018-12-30T23:09:25.119Z,2.90
2018-12-30T23:11:55.879Z,2.90
2018-12-30T23:14:25.515Z,2.90
2018-12-30T23:17:01.279Z,2.90
2018-12-30T23:19:30.753Z,2.90
2018-12-30T23:22:08.095Z,2.80
2018-12-30T23:24:36.914Z,2.90
2018-12-30T23:27:07.819Z,2.90
2018-12-30T23:29:38.674Z,2.80
2018-12-30T23:32:15.426Z,2.90
2018-12-30T23:34:47.775Z,2.80
2018-12-30T23:37:18.553Z,2.90
2018-12-30T23:39:49.322Z,2.90
2018-12-30T23:42:20.107Z,2.90
2018-12-30T23:44:50.916Z,2.80
2018-12-30T23:47:23.238Z,2.80
2018-12-30T23:49:52.958Z,2.80
2018-12-30T23:52:24.365Z,2.80
2018-12-30T23:54:54.117Z,2.80
2018-12-30T23:57:26.471Z,2.80
2018-12-30T23:59:56.239Z,2.80
